Time;durP1;ratioP1;P1;durP2;ratioP2;P2;SDS_P1;SDS_P2;PMS_P1;PMS_P2;Temp;Humidity;BMP_temperature;BMP_pressure;BME280_temperature;BME280_humidity;BME280_pressure;Samples;Min_cycle;Max_cycle;Signal;HPM_P1;HPM_P2
2023/08/26 00:01:52;;;;;;;7.90;2.90;;;18.40;99.90;;;;;;4992869;28;20029;-73
2023/08/26 00:04:19;;;;;;;11.90;3.35;;;18.40;99.90;;;;;;4980269;28;20027;-73
2023/08/26 00:06:44;;;;;;;12.43;3.83;;;18.40;99.90;;;;;;4975235;28;20093;-73
2023/08/26 00:09:10;;;;;;;10.20;3.70;;;18.40;99.90;;;;;;4979515;28;20533;-73
2023/08/26 00:11:35;;;;;;;9.27;4.07;;;18.40;99.90;;;;;;4994161;28;20025;-73
2023/08/26 00:14:01;;;;;;;10.93;3.72;;;18.40;99.90;;;;;;4992272;28;20038;-73
2023/08/26 00:16:27;;;;;;;14.80;3.30;;;18.40;99.90;;;;;;4991603;28;20386;-73
2023/08/26 00:18:52;;;;;;;14.20;3.40;;;18.30;99.90;;;;;;4994359;28;20018;-73
2023/08/26 00:21:21;;;;;;;12.80;3.70;;;18.30;99.90;;;;;;4995976;28;20018;-72
2023/08/26 00:23:50;;;;;;;6.38;2.83;;;18.20;99.90;;;;;;4993060;28;20030;-73
2023/08/26 00:26:18;;;;;;;12.05;3.15;;;18.20;99.90;;;;;;4980757;28;20023;-72
2023/08/26 00:28:44;;;;;;;12.15;3.20;;;18.20;99.90;;;;;;4991822;28;20034;-72
2023/08/26 00:31:10;;;;;;;7.78;2.70;;;18.10;99.90;;;;;;5005147;28;20029;-72
2023/08/26 00:33:36;;;;;;;11.32;2.85;;;18.10;99.90;;;;;;4995028;28;20038;-72
2023/08/26 00:36:01;;;;;;;12.88;3.30;;;18.10;99.90;;;;;;4992219;28;20026;-72
2023/08/26 00:38:30;;;;;;;14.68;3.20;;;18.00;99.90;;;;;;4995245;28;20018;-73
2023/08/26 00:40:56;;;;;;;12.90;3.00;;;18.00;99.90;;;;;;4992622;28;20033;-72
2023/08/26 00:43:22;;;;;;;14.15;3.20;;;17.90;99.90;;;;;;4993612;28;20023;-72
2023/08/26 00:45:53;;;;;;;14.02;3.35;;;17.90;99.90;;;;;;4997681;28;20026;-72
2023/08/26 00:48:19;;;;;;;12.20;3.15;;;17.80;99.90;;;;;;4994188;28;20054;-72
2023/08/26 00:50:47;;;;;;;8.75;2.90;;;17.70;99.90;;;;;;4993394;28;20022;-73
2023/08/26 00:53:15;;;;;;;10.23;2.72;;;17.70;99.90;;;;;;4992430;28;20030;-73
2023/08/26 00:55:42;;;;;;;9.60;3.13;;;17.70;99.90;;;;;;4992028;28;20037;-73
2023/08/26 00:58:09;;;;;;;13.32;2.78;;;17.60;99.90;;;;;;4996359;28;20057;-73
2023/08/26 01:00:39;;;;;;;12.20;3.28;;;17.50;99.90;;;;;;4991279;28;20066;-73
2023/08/26 01:03:05;;;;;;;9.18;2.72;;;17.50;99.90;;;;;;4991821;28;20042;-72
2023/08/26 01:05:31;;;;;;;8.02;2.90;;;17.40;99.90;;;;;;4986522;28;20027;-72
2023/08/26 01:07:58;;;;;;;12.73;3.10;;;17.40;99.90;;;;;;5003859;28;20026;-72
2023/08/26 01:10:41;;;;;;;10.73;3.15;;;17.40;99.90;;;;;;4996974;28;20045;-73
2023/08/26 01:13:11;;;;;;;8.70;2.88;;;17.50;99.90;;;;;;4981100;28;20018;-73
2023/08/26 01:15:42;;;;;;;13.30;2.97;;;17.40;99.90;;;;;;4991903;28;20026;-72
2023/08/26 01:18:09;;;;;;;9.15;2.92;;;17.40;99.90;;;;;;4994382;28;20066;-72
2023/08/26 01:20:35;;;;;;;8.55;2.92;;;17.40;99.90;;;;;;4991411;28;20027;-73
2023/08/26 01:23:05;;;;;;;10.95;2.90;;;17.30;99.90;;;;;;4995402;28;20019;-73
2023/08/26 01:25:31;;;;;;;11.20;3.05;;;17.20;99.90;;;;;;4991261;28;20470;-72
2023/08/26 01:27:57;;;;;;;12.20;3.30;;;17.20;99.90;;;;;;4996260;28;20032;-72
2023/08/26 01:30:27;;;;;;;7.13;3.20;;;17.10;99.90;;;;;;4998033;28;20018;-73
2023/08/26 01:33:03;;;;;;;10.85;2.83;;;17.10;99.90;;;;;;4998096;28;20486;-72
2023/08/26 01:35:38;;;;;;;13.80;3.40;;;17.10;99.90;;;;;;4991748;28;20084;-72
2023/08/26 01:38:05;;;;;;;14.60;3.47;;;17.10;99.90;;;;;;4992155;28;20066;-72
2023/08/26 01:40:33;;;;;;;16.65;3.45;;;17.10;99.90;;;;;;4993216;28;20548;-72
2023/08/26 01:43:00;;;;;;;9.20;3.05;;;17.10;99.90;;;;;;4997615;28;20041;-72
2023/08/26 01:45:26;;;;;;;12.60;3.10;;;17.10;99.90;;;;;;4985642;28;20049;-73
2023/08/26 01:47:51;;;;;;;10.90;3.05;;;17.10;99.90;;;;;;4984968;28;20014;-72
2023/08/26 01:50:17;;;;;;;10.30;3.33;;;17.10;99.90;;;;;;4977939;28;20023;-73
2023/08/26 01:52:43;;;;;;;15.20;3.92;;;17.10;99.90;;;;;;4987969;28;20033;-73
2023/08/26 01:55:08;;;;;;;17.40;4.55;;;17.10;99.90;;;;;;4981921;28;20014;-73
2023/08/26 01:57:34;;;;;;;26.58;6.57;;;17.10;99.90;;;;;;4986553;28;20165;-71
2023/08/26 02:00:00;;;;;;;18.63;5.07;;;17.10;99.90;;;;;;4982866;28;20401;-71
2023/08/26 02:02:26;;;;;;;14.45;4.90;;;17.00;99.90;;;;;;4978532;28;20022;-71
2023/08/26 02:04:51;;;;;;;17.17;5.25;;;17.00;99.90;;;;;;4988863;28;20022;-71
2023/08/26 02:07:17;;;;;;;11.38;4.60;;;17.00;99.90;;;;;;5005829;28;20114;-71
2023/08/26 02:09:43;;;;;;;19.17;4.90;;;17.00;99.90;;;;;;4991497;28;20048;-72
2023/08/26 02:12:08;;;;;;;13.20;4.55;;;17.00;99.90;;;;;;4981983;28;20407;-72
2023/08/26 02:14:34;;;;;;;18.15;4.95;;;17.00;99.90;;;;;;4986754;28;20337;-71
2023/08/26 02:16:59;;;;;;;18.50;4.60;;;17.00;99.90;;;;;;4988721;28;20027;-71
2023/08/26 02:19:25;;;;;;;11.32;4.10;;;17.00;99.90;;;;;;4981384;28;20441;-71
2023/08/26 02:21:52;;;;;;;11.30;4.28;;;17.00;99.90;;;;;;4990962;28;20023;-72
2023/08/26 02:24:17;;;;;;;14.90;4.40;;;16.90;99.90;;;;;;4993037;28;20101;-71
2023/08/26 02:26:43;;;;;;;12.60;4.43;;;16.90;99.90;;;;;;4991189;28;20022;-72
2023/08/26 02:29:09;;;;;;;17.98;4.38;;;16.90;99.90;;;;;;4986922;28;20022;-72
2023/08/26 02:31:34;;;;;;;16.77;4.45;;;16.80;99.90;;;;;;4994717;28;20397;-72
2023/08/26 02:34:00;;;;;;;10.77;4.47;;;16.80;99.90;;;;;;4984849;28;20489;-72
2023/08/26 02:36:25;;;;;;;17.40;4.85;;;16.80;99.90;;;;;;5002593;28;20037;-72
2023/08/26 02:38:51;;;;;;;14.77;4.68;;;16.80;99.90;;;;;;5000180;28;20015;-72
2023/08/26 02:41:17;;;;;;;10.85;4.30;;;16.80;99.90;;;;;;4991969;28;20045;-72
2023/08/26 02:43:42;;;;;;;16.98;4.68;;;16.70;99.90;;;;;;4994062;28;20389;-71
2023/08/26 02:46:08;;;;;;;14.98;4.20;;;16.70;99.90;;;;;;4994388;28;20022;-72
2023/08/26 02:48:34;;;;;;;15.50;4.00;;;16.70;99.90;;;;;;5005130;28;20521;-72
2023/08/26 02:51:01;;;;;;;13.85;4.50;;;16.60;99.90;;;;;;4994162;28;20025;-72
2023/08/26 02:53:28;;;;;;;14.75;4.72;;;16.70;99.90;;;;;;4983669;28;20031;-71
2023/08/26 02:55:55;;;;;;;15.75;4.47;;;16.70;99.90;;;;;;4979984;28;20295;-72
2023/08/26 02:58:21;;;;;;;11.90;4.25;;;16.60;99.90;;;;;;4994262;28;20022;-71
2023/08/26 03:00:47;;;;;;;14.52;4.75;;;16.60;99.90;;;;;;4993441;28;20038;-72
2023/08/26 03:03:14;;;;;;;15.57;4.78;;;16.60;99.90;;;;;;4991515;28;20082;-71
2023/08/26 03:05:40;;;;;;;14.77;4.40;;;16.50;99.90;;;;;;4998050;28;20562;-71
2023/08/26 03:08:06;;;;;;;16.33;4.75;;;16.50;99.90;;;;;;4994094;28;20105;-71
2023/08/26 03:10:32;;;;;;;17.02;4.43;;;16.40;99.90;;;;;;4999832;28;20080;-72
2023/08/26 03:12:58;;;;;;;16.13;4.85;;;16.40;99.90;;;;;;4982700;28;20090;-72
2023/08/26 03:15:27;;;;;;;16.38;4.80;;;16.30;99.90;;;;;;4995578;28;20493;-72
2023/08/26 03:17:53;;;;;;;15.13;5.10;;;16.30;99.90;;;;;;4996353;28;20029;-71
2023/08/26 03:20:19;;;;;;;14.48;4.78;;;16.30;99.90;;;;;;4997377;28;20014;-71
2023/08/26 03:22:45;;;;;;;10.32;4.53;;;16.20;99.90;;;;;;4993439;28;20041;-71
2023/08/26 03:25:11;;;;;;;13.90;5.18;;;16.20;99.90;;;;;;4993104;28;20026;-71
2023/08/26 03:27:37;;;;;;;11.57;4.75;;;16.20;99.90;;;;;;4993239;28;20014;-72
2023/08/26 03:30:03;;;;;;;18.10;5.43;;;16.10;99.90;;;;;;4993429;28;20014;-72
2023/08/26 03:32:29;;;;;;;15.27;5.20;;;16.10;99.90;;;;;;4993361;28;20023;-71
2023/08/26 03:34:54;;;;;;;15.05;5.28;;;16.10;99.90;;;;;;4993431;28;20441;-71
2023/08/26 03:37:20;;;;;;;15.60;5.28;;;16.00;99.90;;;;;;4990719;28;20080;-71
2023/08/26 03:39:46;;;;;;;17.33;5.25;;;16.10;99.90;;;;;;4993285;28;20065;-71
2023/08/26 03:42:11;;;;;;;13.90;6.07;;;16.10;99.90;;;;;;4993192;28;20101;-71
2023/08/26 03:44:37;;;;;;;15.13;5.53;;;16.10;99.90;;;;;;4993406;28;20478;-72
2023/08/26 03:47:03;;;;;;;17.83;5.82;;;16.10;99.90;;;;;;4993192;28;20030;-71
2023/08/26 03:49:28;;;;;;;15.57;5.55;;;16.00;99.90;;;;;;4998350;28;20054;-71
2023/08/26 03:51:54;;;;;;;19.20;5.85;;;16.00;99.90;;;;;;4998989;28;20026;-71
2023/08/26 03:54:20;;;;;;;18.45;6.03;;;16.00;99.90;;;;;;4980531;28;20049;-72
2023/08/26 03:56:46;;;;;;;18.13;6.25;;;15.90;99.90;;;;;;5007919;28;20018;-71
2023/08/26 03:59:11;;;;;;;16.02;5.65;;;15.80;99.90;;;;;;4994677;28;20019;-71
2023/08/26 04:01:37;;;;;;;16.05;5.78;;;15.80;99.90;;;;;;4992718;28;20050;-71
2023/08/26 04:04:03;;;;;;;15.70;5.82;;;15.70;99.90;;;;;;4997068;28;20041;-71
2023/08/26 04:06:28;;;;;;;13.43;5.53;;;15.80;99.90;;;;;;4998724;28;20029;-71
2023/08/26 04:08:54;;;;;;;20.20;5.85;;;15.70;99.90;;;;;;4993390;28;20438;-71
2023/08/26 04:11:20;;;;;;;16.25;5.43;;;15.70;99.90;;;;;;4999890;28;20023;-71
2023/08/26 04:13:45;;;;;;;15.93;6.05;;;15.70;99.90;;;;;;4992638;28;20361;-71
2023/08/26 04:16:11;;;;;;;16.02;5.82;;;15.70;99.90;;;;;;4994236;28;20362;-71
2023/08/26 04:18:37;;;;;;;17.63;5.85;;;15.60;99.90;;;;;;4995291;28;20030;-71
2023/08/26 04:21:03;;;;;;;16.42;5.95;;;15.60;99.90;;;;;;4996344;28;20026;-71
2023/08/26 04:23:30;;;;;;;20.35;6.63;;;15.60;99.90;;;;;;4987316;28;20022;-71
2023/08/26 04:25:59;;;;;;;17.10;5.95;;;15.50;99.90;;;;;;4998254;28;20029;-71
2023/08/26 04:28:25;;;;;;;14.45;5.95;;;15.50;99.90;;;;;;4992432;28;20489;-71
2023/08/26 04:30:51;;;;;;;17.75;6.57;;;15.50;99.90;;;;;;5003754;28;20030;-71
2023/08/26 04:33:16;;;;;;;13.90;6.35;;;15.50;99.90;;;;;;5007009;28;20030;-71
2023/08/26 04:35:42;;;;;;;19.55;6.30;;;15.50;99.90;;;;;;4992011;28;20102;-71
2023/08/26 04:38:07;;;;;;;12.77;5.93;;;15.50;99.90;;;;;;4992144;28;20375;-71
2023/08/26 04:40:33;;;;;;;14.25;5.95;;;15.40;99.90;;;;;;5007577;28;20540;-71
2023/08/26 04:43:01;;;;;;;13.07;6.20;;;15.40;99.90;;;;;;5011443;28;20030;-71
2023/08/26 04:45:26;;;;;;;17.02;6.05;;;15.40;99.90;;;;;;4996117;28;20022;-71
2023/08/26 04:47:52;;;;;;;20.05;6.05;;;15.40;99.90;;;;;;4999926;28;20381;-71
2023/08/26 04:50:18;;;;;;;19.00;6.45;;;15.40;99.90;;;;;;4997182;28;20018;-71
2023/08/26 04:52:43;;;;;;;17.75;6.03;;;15.40;99.90;;;;;;4986193;28;20387;-71
2023/08/26 04:55:10;;;;;;;15.50;6.60;;;15.40;99.90;;;;;;4985011;28;20521;-71
2023/08/26 04:57:36;;;;;;;15.98;5.68;;;15.40;99.90;;;;;;4991427;28;20022;-71
2023/08/26 05:00:06;;;;;;;13.95;6.07;;;15.40;99.90;;;;;;4994205;28;20054;-71
2023/08/26 05:02:31;;;;;;;14.57;5.72;;;15.40;99.90;;;;;;4988646;28;20050;-71
2023/08/26 05:04:58;;;;;;;18.35;5.22;;;15.30;99.90;;;;;;4991289;28;20065;-71
2023/08/26 05:07:24;;;;;;;14.77;5.20;;;15.30;99.90;;;;;;5001686;28;20041;-71
2023/08/26 05:09:49;;;;;;;13.20;4.50;;;15.30;99.90;;;;;;4991595;28;20412;-71
2023/08/26 05:12:15;;;;;;;17.23;4.93;;;15.40;99.90;;;;;;4982321;28;20027;-71
2023/08/26 05:14:41;;;;;;;12.00;4.60;;;15.40;99.90;;;;;;4987974;28;20025;-71
2023/08/26 05:17:07;;;;;;;11.63;4.43;;;15.40;99.90;;;;;;4991672;28;20093;-71
2023/08/26 05:19:32;;;;;;;13.73;4.38;;;15.50;99.90;;;;;;4993748;28;20027;-71
2023/08/26 05:21:58;;;;;;;15.43;4.70;;;15.50;99.90;;;;;;4990557;28;20033;-71
2023/08/26 05:24:24;;;;;;;15.13;4.35;;;15.60;99.90;;;;;;4990934;28;20062;-71
2023/08/26 05:26:49;;;;;;;13.48;4.43;;;15.60;99.90;;;;;;4991384;28;20084;-71
2023/08/26 05:29:15;;;;;;;14.25;4.10;;;15.60;99.90;;;;;;4992613;28;20466;-71
2023/08/26 05:31:41;;;;;;;15.93;4.57;;;15.70;99.90;;;;;;4990469;28;20046;-71
2023/08/26 05:34:06;;;;;;;16.60;4.53;;;15.70;99.90;;;;;;4989811;28;20030;-71
2023/08/26 05:36:32;;;;;;;18.05;4.47;;;15.80;99.90;;;;;;4990801;28;20379;-71
2023/08/26 05:38:58;;;;;;;14.48;4.30;;;15.80;99.90;;;;;;4992103;28;20018;-72
2023/08/26 05:41:23;;;;;;;13.50;3.97;;;15.90;99.90;;;;;;4992108;28;20592;-72
2023/08/26 05:43:49;;;;;;;15.32;4.35;;;15.90;99.90;;;;;;4993450;28;20022;-72
2023/08/26 05:46:15;;;;;;;13.48;4.38;;;16.00;99.90;;;;;;4993967;28;20030;-72
2023/08/26 05:48:41;;;;;;;15.15;4.55;;;16.00;99.90;;;;;;5001568;28;20081;-72
2023/08/26 05:51:07;;;;;;;11.73;4.45;;;16.00;99.90;;;;;;5002835;28;20022;-72
2023/08/26 05:53:32;;;;;;;14.18;4.32;;;16.00;99.90;;;;;;4998128;28;20035;-72
2023/08/26 05:55:58;;;;;;;17.35;4.57;;;16.10;99.90;;;;;;5007688;28;20077;-72
2023/08/26 05:58:24;;;;;;;12.75;4.03;;;16.10;99.90;;;;;;4993910;28;20069;-72
2023/08/26 06:00:50;;;;;;;10.57;3.90;;;16.10;99.90;;;;;;4990527;28;20074;-71
2023/08/26 06:03:16;;;;;;;12.73;4.22;;;16.10;99.90;;;;;;4988249;28;20795;-72
2023/08/26 06:05:41;;;;;;;12.15;4.00;;;16.10;99.90;;;;;;4990744;28;20030;-72
2023/08/26 06:08:07;;;;;;;13.65;4.40;;;16.20;99.90;;;;;;5003489;28;20026;-72
2023/08/26 06:10:33;;;;;;;13.70;4.30;;;16.20;99.90;;;;;;4990133;28;20027;-72
2023/08/26 06:12:59;;;;;;;13.93;3.60;;;16.30;99.90;;;;;;4991592;28;20105;-71
2023/08/26 06:15:24;;;;;;;12.57;3.72;;;16.30;99.90;;;;;;4993178;28;20374;-72
2023/08/26 06:17:50;;;;;;;15.75;3.80;;;16.30;99.90;;;;;;4996943;28;20393;-72
2023/08/26 06:20:16;;;;;;;12.23;3.70;;;16.40;99.90;;;;;;4994867;28;20070;-72
2023/08/26 06:22:42;;;;;;;7.07;3.00;;;16.40;99.90;;;;;;4994947;28;20024;-72
2023/08/26 06:25:08;;;;;;;9.45;3.17;;;16.40;99.90;;;;;;4994381;28;20470;-72
2023/08/26 06:27:34;;;;;;;11.93;3.05;;;16.50;99.90;;;;;;4994443;28;20077;-72
2023/08/26 06:30:03;;;;;;;10.25;3.20;;;16.50;99.90;;;;;;4994547;28;20076;-72
2023/08/26 06:32:28;;;;;;;14.55;3.30;;;16.50;99.90;;;;;;4994632;28;20023;-70
2023/08/26 06:34:54;;;;;;;11.68;2.97;;;16.60;99.90;;;;;;4993966;28;20046;-71
2023/08/26 06:37:20;;;;;;;10.90;3.00;;;16.60;99.90;;;;;;4986753;28;20025;-69
2023/08/26 06:39:45;;;;;;;10.18;2.75;;;16.70;99.90;;;;;;4995645;28;20026;-71
2023/08/26 06:42:11;;;;;;;9.90;3.00;;;16.70;99.90;;;;;;4993937;28;20514;-72
2023/08/26 06:44:37;;;;;;;14.60;4.35;;;16.70;99.90;;;;;;4995192;28;20034;-72
2023/08/26 06:47:03;;;;;;;11.57;4.28;;;16.70;99.90;;;;;;4994727;28;20037;-72
2023/08/26 06:49:28;;;;;;;14.65;5.07;;;16.70;99.90;;;;;;5000529;28;20386;-72
2023/08/26 06:51:54;;;;;;;9.75;5.00;;;16.70;99.90;;;;;;5000979;28;20057;-72
2023/08/26 06:54:19;;;;;;;12.15;5.50;;;16.70;99.90;;;;;;4981817;28;20543;-71
2023/08/26 06:56:45;;;;;;;13.88;6.18;;;16.70;99.90;;;;;;4995841;28;20553;-71
2023/08/26 06:59:11;;;;;;;10.90;5.60;;;16.70;99.90;;;;;;4993746;28;20034;-71
2023/08/26 07:01:37;;;;;;;8.40;5.05;;;16.70;99.90;;;;;;4993975;28;20081;-71
2023/08/26 07:04:07;;;;;;;7.95;5.00;;;16.80;99.90;;;;;;4993669;28;20054;-71
2023/08/26 07:06:33;;;;;;;9.77;4.38;;;16.80;99.90;;;;;;4999968;28;20038;-71
2023/08/26 07:08:59;;;;;;;7.25;4.10;;;16.80;99.90;;;;;;5000465;28;20100;-71
2023/08/26 07:11:25;;;;;;;9.68;4.68;;;16.80;99.90;;;;;;4999703;28;20046;-71
2023/08/26 07:13:51;;;;;;;8.00;4.28;;;16.80;99.90;;;;;;4982566;28;20061;-71
2023/08/26 07:16:16;;;;;;;9.15;4.25;;;16.90;99.90;;;;;;4991355;28;20023;-71
2023/08/26 07:18:42;;;;;;;9.60;4.00;;;16.90;99.90;;;;;;4993550;28;20026;-72
2023/08/26 07:21:07;;;;;;;8.80;3.72;;;16.90;99.90;;;;;;5011234;28;20022;-72
2023/08/26 07:23:33;;;;;;;7.03;3.03;;;17.00;99.90;;;;;;5003029;28;20019;-72
2023/08/26 07:25:59;;;;;;;5.75;2.88;;;17.00;99.90;;;;;;4992583;28;20022;-72
2023/08/26 07:28:25;;;;;;;6.88;2.90;;;17.00;99.90;;;;;;4993280;28;20026;-72
2023/08/26 07:30:51;;;;;;;5.50;2.55;;;17.10;99.90;;;;;;4996536;28;20072;-72
2023/08/26 07:33:17;;;;;;;5.25;2.53;;;17.20;99.90;;;;;;5000021;28;20038;-72
2023/08/26 07:35:43;;;;;;;5.72;2.67;;;17.20;99.90;;;;;;5004387;28;20010;-72
2023/08/26 07:38:09;;;;;;;8.93;2.33;;;17.30;99.90;;;;;;5002981;28;20021;-72
2023/08/26 07:40:34;;;;;;;5.65;2.38;;;17.30;99.90;;;;;;4996585;28;20075;-71
2023/08/26 07:43:00;;;;;;;5.78;2.58;;;17.30;99.90;;;;;;4994276;28;20037;-72
2023/08/26 07:45:26;;;;;;;3.65;1.73;;;17.30;99.90;;;;;;4997931;28;20037;-72
2023/08/26 07:47:52;;;;;;;6.53;1.85;;;17.40;99.90;;;;;;4992935;28;20100;-72
2023/08/26 07:50:17;;;;;;;4.75;1.52;;;17.40;99.90;;;;;;5005717;28;20036;-72
2023/08/26 07:52:45;;;;;;;7.15;1.70;;;17.40;99.90;;;;;;4988275;28;20383;-72
2023/08/26 07:55:11;;;;;;;5.60;1.77;;;17.50;99.90;;;;;;4986260;28;20454;-72
2023/08/26 07:57:36;;;;;;;2.90;1.48;;;17.60;99.90;;;;;;4994531;28;20106;-72
2023/08/26 08:00:02;;;;;;;4.45;1.70;;;17.60;99.90;;;;;;4994999;28;20453;-72
2023/08/26 08:02:29;;;;;;;4.85;1.23;;;17.60;99.90;;;;;;4996533;28;20362;-72
2023/08/26 08:04:55;;;;;;;4.40;1.42;;;17.70;99.90;;;;;;4997230;28;20481;-72
2023/08/26 08:07:20;;;;;;;7.45;1.60;;;17.80;99.90;;;;;;4992538;28;20058;-72
2023/08/26 08:09:46;;;;;;;5.38;1.58;;;17.90;99.90;;;;;;4999551;28;20101;-72
2023/08/26 08:12:14;;;;;;;5.05;1.23;;;18.00;99.90;;;;;;4992780;28;20023;-72
2023/08/26 08:14:41;;;;;;;2.50;1.45;;;18.10;99.90;;;;;;4993965;28;20040;-72
2023/08/26 08:17:07;;;;;;;2.92;1.70;;;18.20;99.90;;;;;;4994860;28;20045;-72
2023/08/26 08:19:38;;;;;;;1.63;1.25;;;18.30;99.90;;;;;;4998505;28;20090;-72
2023/08/26 08:22:04;;;;;;;3.33;1.50;;;18.40;99.90;;;;;;4988130;28;20445;-72
2023/08/26 08:24:30;;;;;;;2.75;1.58;;;18.40;99.90;;;;;;4996636;28;20058;-73
2023/08/26 08:26:55;;;;;;;4.65;1.40;;;18.50;99.90;;;;;;4993585;28;20026;-74
2023/08/26 08:29:21;;;;;;;6.50;1.70;;;18.70;99.90;;;;;;4991824;28;20396;-74
2023/08/26 08:31:46;;;;;;;5.38;1.73;;;18.90;99.90;;;;;;4997526;28;20022;-74
2023/08/26 08:34:12;;;;;;;2.58;1.90;;;19.20;99.90;;;;;;4999185;28;20022;-74
2023/08/26 08:36:38;;;;;;;4.50;1.60;;;19.40;99.90;;;;;;5005728;28;20018;-74
2023/08/26 08:39:03;;;;;;;4.03;1.80;;;19.50;99.90;;;;;;5000370;28;20436;-74
2023/08/26 08:41:33;;;;;;;5.25;2.78;;;19.70;99.90;;;;;;5006243;28;20018;-74
2023/08/26 08:44:03;;;;;;;5.22;2.92;;;19.80;99.90;;;;;;5005476;28;20469;-74
2023/08/26 08:46:28;;;;;;;4.22;2.30;;;19.90;99.90;;;;;;4997750;28;20029;-74
2023/08/26 08:48:54;;;;;;;7.00;2.05;;;20.10;99.90;;;;;;5005132;28;20037;-74
2023/08/26 08:51:21;;;;;;;4.07;1.73;;;20.20;99.90;;;;;;4999884;28;20493;-74
2023/08/26 08:53:50;;;;;;;2.65;1.83;;;20.30;99.90;;;;;;4992524;28;20035;-74
2023/08/26 08:56:16;;;;;;;2.10;1.90;;;20.40;99.90;;;;;;4992056;28;20029;-74
2023/08/26 08:58:51;;;;;;;5.80;2.15;;;20.60;99.90;;;;;;5111504;27;20906;-73
2023/08/26 09:01:19;;;;;;;3.85;2.00;;;20.70;99.90;;;;;;5091936;28;20028;-73
2023/08/26 09:03:47;;;;;;;4.18;2.00;;;20.80;99.90;;;;;;5095865;28;20327;-73
2023/08/26 09:06:13;;;;;;;4.22;1.75;;;20.80;99.90;;;;;;5095817;28;20353;-72
2023/08/26 09:08:39;;;;;;;5.05;1.60;;;20.70;99.90;;;;;;5099008;28;20028;-73
2023/08/26 09:11:05;;;;;;;5.65;1.70;;;20.70;99.90;;;;;;5100165;28;20030;-73
2023/08/26 09:13:31;;;;;;;2.33;1.40;;;20.60;99.90;;;;;;5101284;28;20009;-74
2023/08/26 09:15:57;;;;;;;2.80;1.30;;;20.50;99.90;;;;;;5100416;28;20032;-73
2023/08/26 09:18:23;;;;;;;6.32;1.60;;;20.40;99.90;;;;;;5106025;28;20020;-73
2023/08/26 09:20:49;;;;;;;4.10;1.48;;;20.30;99.90;;;;;;5108537;28;20038;-73
2023/08/26 09:23:14;;;;;;;4.80;1.73;;;20.20;99.90;;;;;;5108263;28;20102;-74
2023/08/26 09:25:54;;;;;;;4.18;1.48;;;20.20;99.90;;;;;;5101783;28;20020;-74
2023/08/26 09:28:20;;;;;;;4.65;1.50;;;20.10;99.90;;;;;;5092001;28;20011;-73
2023/08/26 09:31:06;;;;;;;8.52;2.00;;;20.10;99.90;;;;;;5090917;28;20058;-73
2023/08/26 09:33:32;;;;;;;3.83;1.58;;;20.20;99.90;;;;;;5092085;28;20024;-74
2023/08/26 09:36:01;;;;;;;6.03;1.40;;;20.30;99.90;;;;;;5093634;28;20077;-74
2023/08/26 09:38:28;;;;;;;5.30;1.38;;;20.20;99.90;;;;;;5099592;28;20020;-74
2023/08/26 09:40:59;;;;;;;7.30;1.50;;;20.30;99.90;;;;;;5097239;28;20039;-75
2023/08/26 09:43:25;;;;;;;3.50;1.40;;;20.40;99.90;;;;;;5102720;28;20036;-75
2023/08/26 09:45:55;;;;;;;3.60;1.50;;;20.40;99.90;;;;;;5092738;28;20076;-74
2023/08/26 09:48:24;;;;;;;2.67;1.23;;;20.50;99.90;;;;;;5107510;28;20274;-74
2023/08/26 09:50:50;;;;;;;5.43;1.40;;;20.50;99.90;;;;;;5106662;28;20024;-74
2023/08/26 09:53:31;;;;;;;3.38;1.42;;;20.60;99.90;;;;;;5107494;28;20034;-74
2023/08/26 09:55:58;;;;;;;2.47;1.20;;;20.80;99.90;;;;;;5093820;28;20024;-73
2023/08/26 09:58:25;;;;;;;4.90;1.52;;;21.00;99.90;;;;;;5103694;28;20035;-73
2023/08/26 10:00:53;;;;;;;3.13;1.50;;;21.10;99.90;;;;;;5103266;28;20020;-73
2023/08/26 10:03:23;;;;;;;7.10;1.52;;;21.20;99.90;;;;;;5107117;28;20023;-74
2023/08/26 10:05:51;;;;;;;2.92;1.48;;;21.30;99.90;;;;;;5106723;28;20386;-73
2023/08/26 10:08:20;;;;;;;6.20;1.50;;;21.30;99.90;;;;;;5102408;28;20053;-73
2023/08/26 10:10:53;;;;;;;6.28;1.42;;;21.20;99.90;;;;;;5092764;28;20016;-72
2023/08/26 10:13:25;;;;;;;3.38;1.30;;;21.20;99.90;;;;;;5073711;28;20025;-72
2023/08/26 10:15:52;;;;;;;4.38;1.33;;;21.20;99.90;;;;;;5074519;28;20090;-72
2023/08/26 10:18:24;;;;;;;2.63;1.30;;;21.20;99.90;;;;;;5090189;28;20436;-72
2023/08/26 10:20:51;;;;;;;3.92;1.38;;;21.30;99.90;;;;;;5088813;28;20078;-72
2023/08/26 10:23:16;;;;;;;3.83;1.33;;;21.40;99.90;;;;;;5087707;28;20031;-72
2023/08/26 10:25:43;;;;;;;3.20;1.20;;;21.40;99.90;;;;;;5092641;28;20024;-72
2023/08/26 10:28:10;;;;;;;4.03;1.20;;;21.50;99.90;;;;;;5078147;28;20060;-72
2023/08/26 10:30:36;;;;;;;4.00;0.95;;;21.70;99.90;;;;;;5079480;28;20479;-72
2023/08/26 10:33:04;;;;;;;6.32;1.10;;;21.70;99.90;;;;;;5089133;28;20024;-72
2023/08/26 10:35:30;;;;;;;2.83;1.30;;;21.70;99.90;;;;;;5091624;28;20024;-72
2023/08/26 10:38:10;;;;;;;3.20;0.95;;;21.90;99.90;;;;;;5092535;28;20491;-72
2023/08/26 10:40:36;;;;;;;2.63;0.88;;;22.00;99.90;;;;;;5089017;28;20021;-73
2023/08/26 10:43:06;;;;;;;4.35;1.13;;;22.00;99.90;;;;;;5083405;28;20394;-72
2023/08/26 10:45:32;;;;;;;1.70;0.73;;;22.00;99.90;;;;;;5089298;28;20028;-73
2023/08/26 10:48:00;;;;;;;2.70;0.68;;;22.10;99.90;;;;;;5091646;28;20471;-72
2023/08/26 10:50:27;;;;;;;1.73;0.85;;;22.00;99.90;;;;;;5092253;28;20051;-73
2023/08/26 10:52:58;;;;;;;2.10;0.73;;;21.90;99.90;;;;;;5079817;28;20020;-72
2023/08/26 10:55:28;;;;;;;3.42;0.98;;;21.80;99.90;;;;;;5091867;28;20099;-72
2023/08/26 10:58:16;;;;;;;3.00;1.05;;;21.50;99.90;;;;;;5073813;28;20055;-72
2023/08/26 11:00:53;;;;;;;4.10;0.90;;;21.40;99.90;;;;;;5089889;28;20016;-73
2023/08/26 11:03:22;;;;;;;3.97;1.10;;;21.30;99.90;;;;;;5091901;28;20020;-73
2023/08/26 11:06:04;;;;;;;2.13;0.95;;;21.20;99.90;;;;;;5082942;28;20429;-73
2023/08/26 11:08:30;;;;;;;3.28;1.10;;;21.30;99.90;;;;;;5091662;28;20012;-73
2023/08/26 11:10:56;;;;;;;2.80;1.10;;;21.20;99.90;;;;;;5090981;28;20020;-72
2023/08/26 11:13:22;;;;;;;3.95;1.00;;;21.20;99.90;;;;;;5090241;28;20019;-73
2023/08/26 11:15:50;;;;;;;2.05;1.02;;;21.10;99.90;;;;;;5091727;28;20095;-72
2023/08/26 11:18:16;;;;;;;4.47;1.30;;;21.10;99.90;;;;;;5088404;28;20070;-73
2023/08/26 11:20:44;;;;;;;2.45;1.20;;;21.00;99.90;;;;;;5090655;28;20068;-72
2023/08/26 11:23:10;;;;;;;4.50;1.00;;;21.10;99.90;;;;;;5085763;28;20066;-72
2023/08/26 11:25:37;;;;;;;2.40;0.77;;;21.20;99.90;;;;;;5084893;28;20024;-74
2023/08/26 11:28:08;;;;;;;1.27;0.65;;;21.30;99.90;;;;;;5078584;28;20024;-72
2023/08/26 11:30:39;;;;;;;1.75;0.70;;;21.40;99.90;;;;;;5072910;28;20024;-72
2023/08/26 11:33:15;;;;;;;3.08;0.80;;;21.60;99.90;;;;;;5090492;28;20024;-74
2023/08/26 11:35:44;;;;;;;;;;;21.90;99.90;;;;;;5088894;28;20028;-73
2023/08/26 11:38:11;;;;;;;1.92;0.75;;;22.20;99.90;;;;;;5089533;28;19999;-73
2023/08/26 11:40:37;;;;;;;1.45;0.70;;;22.40;99.90;;;;;;5088509;28;20027;-73
2023/08/26 11:43:13;;;;;;;4.22;0.85;;;22.60;99.90;;;;;;5080882;28;20032;-74
2023/08/26 11:45:41;;;;;;;2.15;0.82;;;22.70;99.90;;;;;;5085485;28;20016;-74
2023/08/26 11:48:12;;;;;;;1.42;0.80;;;22.80;99.90;;;;;;5089044;28;20481;-74
2023/08/26 11:50:39;;;;;;;2.25;0.88;;;22.90;99.90;;;;;;5078105;28;20440;-75
2023/08/26 11:53:06;;;;;;;3.85;0.80;;;22.80;99.90;;;;;;5091094;28;20016;-73
2023/08/26 11:55:33;;;;;;;2.42;0.70;;;22.70;99.90;;;;;;5078031;28;20357;-74
2023/08/26 11:58:00;;;;;;;4.20;0.85;;;22.40;99.90;;;;;;5090767;28;20047;-74
2023/08/26 12:00:27;;;;;;;3.88;0.73;;;22.30;99.90;;;;;;5080929;28;20024;-75
2023/08/26 12:02:59;;;;;;;2.13;0.63;;;22.20;99.90;;;;;;5090690;28;20111;-74
2023/08/26 12:05:25;;;;;;;2.10;0.57;;;22.30;99.90;;;;;;5090640;28;20120;-74
2023/08/26 12:07:54;;;;;;;1.35;0.60;;;22.40;99.90;;;;;;5083467;28;20052;-74
2023/08/26 12:10:22;;;;;;;3.08;0.63;;;22.40;99.90;;;;;;5076965;28;20016;-74
2023/08/26 12:12:48;;;;;;;3.38;0.80;;;22.30;99.90;;;;;;5090124;28;20038;-72
2023/08/26 12:15:15;;;;;;;1.70;0.60;;;22.20;99.90;;;;;;5073537;28;20016;-72
2023/08/26 12:17:56;;;;;;;2.88;0.73;;;22.10;99.90;;;;;;5076652;28;20082;-74
2023/08/26 12:20:32;;;;;;;2.15;0.60;;;22.10;99.90;;;;;;5095316;28;20012;-75
2023/08/26 12:23:18;;;;;;;3.78;0.88;;;22.20;99.90;;;;;;5094340;28;20491;-75
2023/08/26 12:25:45;;;;;;;2.15;0.68;;;22.40;99.90;;;;;;5084539;28;20052;-74
2023/08/26 12:28:24;;;;;;;2.10;0.90;;;22.60;99.90;;;;;;5079207;28;20020;-74
2023/08/26 12:30:50;;;;;;;4.10;1.00;;;22.70;99.90;;;;;;5088190;28;20437;-74
2023/08/26 12:33:16;;;;;;;2.30;0.85;;;22.70;99.90;;;;;;5078489;28;20032;-74
2023/08/26 12:35:42;;;;;;;3.53;0.70;;;22.80;99.90;;;;;;5077001;28;20020;-75
2023/08/26 12:38:08;;;;;;;6.43;0.90;;;22.80;99.90;;;;;;5090559;28;20094;-75
2023/08/26 12:40:36;;;;;;;5.88;0.77;;;23.00;99.90;;;;;;5074172;28;20009;-75
2023/08/26 12:43:04;;;;;;;2.50;0.68;;;23.10;99.90;;;;;;5089147;28;20307;-75